Time;durP1;ratioP1;P1;durP2;ratioP2;P2;SDS_P1;SDS_P2;PMS_P1;PMS_P2;Temp;Humidity;BMP_temperature;BMP_pressure;BME280_temperature;BME280_humidity;BME280_pressure;Samples;Min_cycle;Max_cycle;Signal;HPM_P1;HPM_P2
2022/03/13 00:02:16;;;;;;;15.25;5.95;;;-0.20;27.40;;;;;;5028963;28;46557;-64
2022/03/13 00:04:48;;;;;;;11.73;5.90;;;-0.10;27.30;;;;;;5030759;28;46403;-64
2022/03/13 00:07:27;;;;;;;11.23;6.32;;;-0.10;27.30;;;;;;5026496;28;47269;-64
2022/03/13 00:09:53;;;;;;;11.27;5.78;;;-0.10;27.30;;;;;;5032169;28;46404;-63
2022/03/13 00:12:28;;;;;;;11.23;5.97;;;-0.10;27.40;;;;;;5031773;28;45708;-63
2022/03/13 00:14:56;;;;;;;14.88;6.82;;;-0.10;27.40;;;;;;5028726;28;46262;-64
2022/03/13 00:17:28;;;;;;;11.75;6.28;;;-0.10;27.40;;;;;;5027920;28;47426;-64
2022/03/13 00:19:59;;;;;;;11.77;6.45;;;0.00;28.40;;;;;;5025678;28;46582;-63
2022/03/13 00:22:25;;;;;;;11.25;6.53;;;0.00;27.50;;;;;;5026609;28;46646;-64
2022/03/13 00:24:51;;;;;;;15.23;5.97;;;0.00;27.50;;;;;;5029311;28;46426;-64
2022/03/13 00:27:16;;;;;;;11.13;6.47;;;-0.10;27.60;;;;;;5024729;28;47163;-64
2022/03/13 00:29:42;;;;;;;12.00;5.90;;;-0.20;27.80;;;;;;5034364;28;46562;-64
2022/03/13 00:32:08;;;;;;;8.37;4.90;;;-0.20;27.90;;;;;;5031082;28;46766;-64
2022/03/13 00:34:34;;;;;;;8.35;4.93;;;-0.40;28.00;;;;;;5029945;28;45995;-64
2022/03/13 00:37:00;;;;;;;13.57;6.13;;;-0.50;28.20;;;;;;5033346;28;47219;-64
2022/03/13 00:39:26;;;;;;;13.97;5.00;;;-0.70;28.40;;;;;;5031741;28;46339;-64
2022/03/13 00:41:52;;;;;;;11.52;5.95;;;-0.90;28.60;;;;;;5027679;28;46563;-63
2022/03/13 00:44:17;;;;;;;11.40;6.60;;;-0.90;28.60;;;;;;5027621;28;45997;-63
2022/03/13 00:46:43;;;;;;;8.90;5.27;;;-0.90;28.70;;;;;;5027452;28;46572;-65
2022/03/13 00:49:09;;;;;;;11.10;6.00;;;-0.90;28.60;;;;;;5028100;28;46452;-63
2022/03/13 00:51:35;;;;;;;12.98;6.30;;;-0.90;28.60;;;;;;5028058;28;46430;-62
2022/03/13 00:54:01;;;;;;;10.00;5.87;;;-0.80;28.70;;;;;;5029705;28;46575;-63
2022/03/13 00:56:26;;;;;;;11.30;6.90;;;-0.80;28.70;;;;;;5029592;28;47097;-63
2022/03/13 00:58:52;;;;;;;14.00;5.57;;;-0.70;29.60;;;;;;5027259;28;46383;-63
2022/03/13 01:01:18;;;;;;;12.23;6.03;;;-0.80;28.70;;;;;;5030980;28;46383;-63
2022/03/13 01:03:43;;;;;;;11.20;6.03;;;-0.80;28.70;;;;;;5030689;28;46433;-63
2022/03/13 01:06:09;;;;;;;11.83;6.13;;;-0.80;28.90;;;;;;5027016;28;47004;-63
2022/03/13 01:08:35;;;;;;;11.53;6.17;;;-0.80;28.90;;;;;;5026825;28;46354;-64
2022/03/13 01:11:03;;;;;;;12.43;6.65;;;-0.90;29.00;;;;;;5031430;28;46302;-62
2022/03/13 01:13:30;;;;;;;12.85;6.95;;;-0.90;29.20;;;;;;5031808;28;46455;-64
2022/03/13 01:16:11;;;;;;;15.82;6.63;;;-0.90;29.30;;;;;;5031349;28;46434;-64
2022/03/13 01:18:44;;;;;;;16.27;6.50;;;-1.00;29.60;;;;;;5026933;28;46249;-62
2022/03/13 01:21:11;;;;;;;20.73;7.68;;;-1.10;29.50;;;;;;5028605;28;46576;-64
2022/03/13 01:23:39;;;;;;;13.95;8.00;;;-1.20;29.70;;;;;;5029277;28;46351;-64
2022/03/13 01:26:23;;;;;;;13.23;6.78;;;-1.20;29.90;;;;;;5028514;28;47137;-63
2022/03/13 01:28:55;;;;;;;17.40;6.93;;;-1.20;29.90;;;;;;5025905;28;46469;-64
2022/03/13 01:31:24;;;;;;;13.98;6.32;;;-1.30;29.80;;;;;;5025962;28;46272;-62
2022/03/13 01:33:49;;;;;;;17.73;6.97;;;-1.20;29.90;;;;;;5027514;28;46527;-63
2022/03/13 01:36:15;;;;;;;9.37;5.80;;;-1.30;29.80;;;;;;5021779;28;47227;-64
2022/03/13 01:38:41;;;;;;;15.90;6.70;;;-1.30;29.90;;;;;;5023169;28;46525;-64
2022/03/13 01:41:07;;;;;;;13.30;7.03;;;-1.30;29.90;;;;;;5033454;28;46479;-64
2022/03/13 01:43:33;;;;;;;9.77;6.03;;;-1.30;29.90;;;;;;5036735;28;46793;-64
2022/03/13 01:45:59;;;;;;;10.90;6.45;;;-1.30;29.80;;;;;;5036680;28;48263;-64
2022/03/13 01:48:26;;;;;;;11.13;7.00;;;-1.30;29.90;;;;;;5029482;28;46291;-64
2022/03/13 01:50:52;;;;;;;13.48;6.55;;;-1.30;29.80;;;;;;5032327;28;46223;-62
2022/03/13 01:53:21;;;;;;;16.60;7.17;;;-1.20;29.90;;;;;;5030224;28;46585;-62
2022/03/13 01:55:54;;;;;;;13.15;6.50;;;-1.30;30.00;;;;;;5031190;28;46483;-62
2022/03/13 01:58:20;;;;;;;13.55;6.88;;;-1.30;30.00;;;;;;5026347;28;46489;-64
2022/03/13 02:00:46;;;;;;;14.03;6.43;;;-1.30;30.00;;;;;;5029535;28;46480;-64
2022/03/13 02:03:12;;;;;;;16.60;7.47;;;-1.20;30.20;;;;;;5028262;28;46576;-62
2022/03/13 02:05:38;;;;;;;27.15;7.15;;;-1.30;30.30;;;;;;5028442;28;46422;-62
2022/03/13 02:08:21;;;;;;;12.50;6.38;;;-1.40;30.40;;;;;;5028474;28;46414;-62
2022/03/13 02:10:47;;;;;;;14.77;7.30;;;-1.50;30.60;;;;;;5034871;28;46441;-64
2022/03/13 02:13:19;;;;;;;18.03;8.13;;;-1.50;30.60;;;;;;5028018;28;46700;-65
2022/03/13 02:15:45;;;;;;;14.32;6.35;;;-1.50;30.70;;;;;;5032101;28;46496;-64
2022/03/13 02:18:11;;;;;;;20.70;6.70;;;-1.50;30.70;;;;;;5034446;28;46705;-65
2022/03/13 02:20:43;;;;;;;11.65;6.20;;;-1.50;30.90;;;;;;5028878;28;46397;-65
2022/03/13 02:23:17;;;;;;;11.63;6.13;;;-1.60;30.90;;;;;;5027698;28;46497;-63
2022/03/13 02:25:43;;;;;;;13.55;7.32;;;-1.60;31.10;;;;;;5040160;28;46746;-64
2022/03/13 02:28:09;;;;;;;16.77;7.07;;;-1.70;31.10;;;;;;5035218;28;46450;-63
2022/03/13 02:30:34;;;;;;;14.80;7.30;;;-1.70;31.20;;;;;;5028757;28;46482;-64
2022/03/13 02:33:00;;;;;;;11.97;6.17;;;-1.80;31.40;;;;;;5027907;28;46476;-63
2022/03/13 02:35:29;;;;;;;15.97;7.23;;;-1.80;31.50;;;;;;5031337;28;46368;-64
2022/03/13 02:37:55;;;;;;;19.55;7.00;;;-1.90;31.50;;;;;;5032054;28;46705;-62
2022/03/13 02:40:24;;;;;;;12.07;6.50;;;-1.90;31.60;;;;;;5031329;28;46466;-63
2022/03/13 02:42:51;;;;;;;18.08;7.45;;;-1.90;31.70;;;;;;5026688;28;46485;-62
2022/03/13 02:45:33;;;;;;;21.42;8.52;;;-1.90;31.80;;;;;;5030956;28;46538;-63
2022/03/13 02:48:00;;;;;;;15.00;7.82;;;-2.00;31.90;;;;;;5032242;28;46458;-63
2022/03/13 02:50:26;;;;;;;13.07;7.15;;;-1.90;31.80;;;;;;5029707;28;46634;-63
2022/03/13 02:52:52;;;;;;;13.90;7.67;;;-2.00;31.70;;;;;;5034966;28;46397;-63
2022/03/13 02:55:18;;;;;;;18.23;8.40;;;-1.90;32.00;;;;;;5036915;28;45997;-63
2022/03/13 02:57:44;;;;;;;15.25;8.10;;;-1.90;32.10;;;;;;5031621;28;46284;-63
2022/03/13 03:00:10;;;;;;;15.77;7.20;;;-1.80;32.00;;;;;;5034137;28;46314;-63
2022/03/13 03:02:36;;;;;;;15.45;7.97;;;-1.80;32.00;;;;;;5032721;28;46327;-62
2022/03/13 03:05:06;;;;;;;15.07;7.37;;;-1.70;32.10;;;;;;5030683;28;47025;-63
2022/03/13 03:07:34;;;;;;;22.45;11.20;;;-1.70;32.10;;;;;;5031595;28;46746;-65
2022/03/13 03:09:59;;;;;;;31.00;12.40;;;-1.60;32.00;;;;;;5027341;28;46464;-66
2022/03/13 03:12:25;;;;;;;24.63;9.27;;;-1.50;32.20;;;;;;5029442;28;46490;-65
2022/03/13 03:14:51;;;;;;;25.20;11.53;;;-1.50;32.40;;;;;;5031028;28;47017;-64
2022/03/13 03:17:16;;;;;;;18.60;10.03;;;-1.50;32.70;;;;;;5033882;28;46359;-64
2022/03/13 03:19:42;;;;;;;15.63;8.13;;;-1.50;32.60;;;;;;5029715;28;46464;-64
2022/03/13 03:22:08;;;;;;;22.15;9.10;;;-1.50;32.60;;;;;;5032135;28;46531;-64
2022/03/13 03:24:34;;;;;;;17.50;9.67;;;-1.50;32.60;;;;;;5032474;28;46441;-64
2022/03/13 03:27:00;;;;;;;16.90;8.60;;;-1.50;32.70;;;;;;5033024;28;46529;-64
2022/03/13 03:29:27;;;;;;;19.23;9.35;;;-1.50;32.70;;;;;;5028760;28;46454;-64
2022/03/13 03:31:54;;;;;;;17.10;8.75;;;-1.60;32.70;;;;;;5027647;28;46594;-64
2022/03/13 03:34:21;;;;;;;18.42;7.88;;;-1.70;32.70;;;;;;5029945;28;46278;-64
2022/03/13 03:36:51;;;;;;;15.32;8.80;;;-1.80;32.80;;;;;;5032102;28;46386;-64
2022/03/13 03:39:18;;;;;;;19.50;8.27;;;-1.80;33.00;;;;;;5031636;28;46445;-63
2022/03/13 03:41:46;;;;;;;13.15;7.70;;;-1.80;33.10;;;;;;5029024;28;46511;-64
2022/03/13 03:44:15;;;;;;;16.92;7.97;;;-1.90;33.10;;;;;;5027721;28;46283;-63
2022/03/13 03:46:42;;;;;;;16.13;8.00;;;-2.00;33.30;;;;;;5031373;28;46079;-65
2022/03/13 03:49:08;;;;;;;16.38;6.88;;;-2.20;33.40;;;;;;5032863;28;46098;-64
2022/03/13 03:51:35;;;;;;;15.32;8.10;;;-2.20;33.50;;;;;;5027287;28;46664;-64
2022/03/13 03:54:02;;;;;;;13.27;7.45;;;-2.30;33.60;;;;;;5026419;28;46410;-63
2022/03/13 03:56:28;;;;;;;16.63;7.95;;;-2.30;33.60;;;;;;5030421;28;46228;-63
2022/03/13 03:58:54;;;;;;;19.25;8.00;;;-2.40;33.60;;;;;;5022360;28;46870;-64
2022/03/13 04:01:20;;;;;;;21.27;8.75;;;-2.30;33.60;;;;;;5033381;28;46663;-65
2022/03/13 04:03:46;;;;;;;17.37;7.77;;;-2.30;33.70;;;;;;5035343;28;46482;-63
2022/03/13 04:06:12;;;;;;;19.83;8.43;;;-2.40;33.70;;;;;;5032346;28;46718;-64
2022/03/13 04:08:37;;;;;;;14.40;7.87;;;-2.30;33.80;;;;;;5032242;28;46452;-64
2022/03/13 04:11:03;;;;;;;19.77;8.63;;;-2.30;33.70;;;;;;5032676;28;46566;-64
2022/03/13 04:13:29;;;;;;;15.97;8.10;;;-2.30;33.70;;;;;;5030405;28;46981;-63
2022/03/13 04:15:57;;;;;;;12.03;7.03;;;-2.30;33.50;;;;;;5030135;28;46216;-63
2022/03/13 04:18:23;;;;;;;13.52;6.90;;;-2.30;33.50;;;;;;5027920;28;46711;-63
2022/03/13 04:20:49;;;;;;;14.00;8.10;;;-2.20;33.70;;;;;;5025625;28;46612;-64
2022/03/13 04:23:14;;;;;;;12.23;6.90;;;-2.20;33.60;;;;;;5023449;28;47416;-63
2022/03/13 04:25:40;;;;;;;18.70;7.40;;;-2.20;33.60;;;;;;5022287;28;46489;-64
2022/03/13 04:28:08;;;;;;;12.53;7.30;;;-2.20;33.70;;;;;;5031840;28;45855;-64
2022/03/13 04:30:34;;;;;;;17.52;8.13;;;-2.30;33.70;;;;;;5036414;28;46588;-63
2022/03/13 04:33:01;;;;;;;16.20;7.93;;;-2.30;33.80;;;;;;5033797;28;47252;-63
2022/03/13 04:35:27;;;;;;;23.58;7.88;;;-2.30;33.90;;;;;;5027821;28;46276;-63
2022/03/13 04:37:52;;;;;;;14.90;7.20;;;-2.40;33.90;;;;;;5029138;28;45793;-63
2022/03/13 04:40:18;;;;;;;14.73;8.10;;;-2.40;34.10;;;;;;5032528;28;46260;-64
2022/03/13 04:42:44;;;;;;;21.73;8.60;;;-2.50;34.20;;;;;;5031550;28;46415;-63
2022/03/13 04:45:12;;;;;;;16.57;6.50;;;-2.60;34.20;;;;;;5027819;28;46416;-64
2022/03/13 04:47:37;;;;;;;17.52;7.70;;;-2.60;34.20;;;;;;5030116;28;46375;-63
2022/03/13 04:50:04;;;;;;;14.63;8.20;;;-2.70;34.30;;;;;;5031503;28;46630;-64
2022/03/13 04:52:29;;;;;;;14.73;7.40;;;-2.60;34.40;;;;;;5029658;28;46253;-63
2022/03/13 04:54:55;;;;;;;15.93;7.50;;;-2.70;34.40;;;;;;5028858;28;46482;-64
2022/03/13 04:57:21;;;;;;;20.10;8.20;;;-2.70;34.50;;;;;;5030804;28;46224;-64
2022/03/13 04:59:46;;;;;;;19.30;7.93;;;-2.80;34.40;;;;;;5028799;28;46231;-65
2022/03/13 05:02:12;;;;;;;14.77;7.63;;;-2.80;34.60;;;;;;5029090;28;47331;-64
2022/03/13 05:04:38;;;;;;;17.80;8.50;;;-2.80;34.60;;;;;;5034111;28;46506;-65
2022/03/13 05:07:06;;;;;;;15.90;7.10;;;-2.80;34.60;;;;;;5028577;28;46408;-65
2022/03/13 05:09:32;;;;;;;17.70;8.43;;;-2.80;34.70;;;;;;5031589;28;46297;-62
2022/03/13 05:12:01;;;;;;;14.52;7.72;;;-2.80;34.80;;;;;;5033429;28;47265;-64
2022/03/13 05:14:26;;;;;;;14.95;8.45;;;-2.80;34.80;;;;;;5034038;28;46299;-64
2022/03/13 05:16:52;;;;;;;12.67;7.50;;;-2.80;34.70;;;;;;5029858;28;46483;-63
2022/03/13 05:19:18;;;;;;;14.33;7.83;;;-2.80;34.70;;;;;;5031218;28;46367;-62
2022/03/13 05:21:44;;;;;;;21.48;8.52;;;-2.80;34.90;;;;;;5031324;28;47125;-62
2022/03/13 05:24:10;;;;;;;20.55;9.55;;;-2.80;34.90;;;;;;5030081;28;46636;-62
2022/03/13 05:26:36;;;;;;;21.37;9.80;;;-2.70;34.90;;;;;;5029412;28;46378;-64
2022/03/13 05:29:02;;;;;;;20.03;10.13;;;-2.70;34.90;;;;;;5027278;28;46654;-64
2022/03/13 05:31:28;;;;;;;19.00;8.40;;;-2.70;35.00;;;;;;5029376;28;47108;-64
2022/03/13 05:33:54;;;;;;;17.43;9.37;;;-2.60;34.90;;;;;;5030553;28;46403;-64
2022/03/13 05:36:19;;;;;;;16.90;8.43;;;-2.50;35.10;;;;;;5027681;28;46375;-64
2022/03/13 05:38:45;;;;;;;16.20;9.20;;;-2.50;35.30;;;;;;5029743;28;46511;-64
2022/03/13 05:41:12;;;;;;;20.30;9.40;;;-2.60;35.30;;;;;;5030562;28;47970;-64
2022/03/13 05:43:40;;;;;;;16.38;9.15;;;-2.50;35.30;;;;;;5030663;28;45883;-63
2022/03/13 05:46:06;;;;;;;21.45;8.20;;;-2.50;35.30;;;;;;5029264;28;46348;-63
2022/03/13 05:48:31;;;;;;;13.35;7.82;;;-2.40;35.30;;;;;;5031449;28;46392;-63
2022/03/13 05:50:57;;;;;;;15.73;8.67;;;-2.40;35.50;;;;;;5030779;28;46705;-64
2022/03/13 05:53:23;;;;;;;18.63;8.50;;;-2.40;35.50;;;;;;5030479;28;46453;-63
2022/03/13 05:55:49;;;;;;;20.87;9.20;;;-2.40;35.40;;;;;;5030494;28;45955;-64
2022/03/13 05:58:14;;;;;;;14.87;8.40;;;-2.50;35.50;;;;;;5029764;28;46300;-63
2022/03/13 06:00:40;;;;;;;13.60;7.53;;;-2.40;35.70;;;;;;5027622;28;47089;-63
2022/03/13 06:03:06;;;;;;;14.83;8.00;;;-2.30;35.60;;;;;;5024887;28;46338;-63
2022/03/13 06:05:35;;;;;;;14.07;8.15;;;-2.30;35.60;;;;;;5025255;28;45866;-64
2022/03/13 06:08:00;;;;;;;16.23;8.90;;;-2.20;35.60;;;;;;5025158;28;46422;-63
2022/03/13 06:10:26;;;;;;;16.53;8.93;;;-2.10;35.70;;;;;;5023151;28;46862;-64
2022/03/13 06:12:52;;;;;;;18.20;8.10;;;-2.00;35.50;;;;;;5028428;28;46477;-64
2022/03/13 06:15:18;;;;;;;14.77;8.50;;;-1.80;35.40;;;;;;5026971;28;46737;-64
2022/03/13 06:17:47;;;;;;;20.70;10.80;;;-1.70;35.30;;;;;;5028044;28;46439;-64
2022/03/13 06:20:15;;;;;;;21.50;10.27;;;-1.50;35.20;;;;;;5030325;28;47280;-64
2022/03/13 06:22:43;;;;;;;16.58;9.25;;;-1.40;35.50;;;;;;5027335;28;46428;-62
2022/03/13 06:25:10;;;;;;;32.45;14.85;;;-1.20;35.70;;;;;;5026951;28;46350;-63
2022/03/13 06:27:38;;;;;;;28.13;13.45;;;-1.10;35.50;;;;;;5028021;28;46327;-64
2022/03/13 06:30:16;;;;;;;32.53;15.18;;;-1.00;35.50;;;;;;5029012;28;46486;-62
2022/03/13 06:32:49;;;;;;;22.20;10.77;;;-0.80;35.50;;;;;;5030692;28;46461;-63
2022/03/13 06:35:17;;;;;;;23.13;9.55;;;-0.50;35.40;;;;;;5022777;28;46534;-62
2022/03/13 06:37:43;;;;;;;15.27;8.63;;;-0.30;35.30;;;;;;5025118;28;46387;-63
2022/03/13 06:40:10;;;;;;;17.05;8.85;;;-0.10;35.40;;;;;;5027056;28;46409;-64
2022/03/13 06:42:38;;;;;;;17.20;8.50;;;0.00;35.10;;;;;;5033009;28;46375;-64
2022/03/13 06:45:04;;;;;;;15.55;8.40;;;0.30;35.00;;;;;;5031971;28;46543;-62
2022/03/13 06:47:30;;;;;;;17.65;9.38;;;0.50;35.20;;;;;;5029447;28;46331;-64
2022/03/13 06:49:56;;;;;;;15.60;9.47;;;0.60;35.00;;;;;;5033637;28;46260;-62
2022/03/13 06:52:22;;;;;;;17.53;9.30;;;0.90;35.20;;;;;;5030339;28;46794;-62
2022/03/13 06:54:47;;;;;;;15.30;8.77;;;0.90;35.00;;;;;;5026864;28;46503;-63
2022/03/13 06:57:15;;;;;;;16.83;10.07;;;1.10;35.00;;;;;;5026131;28;46425;-62
2022/03/13 06:59:43;;;;;;;20.30;11.10;;;1.20;34.80;;;;;;5028583;28;48210;-64
2022/03/13 07:02:10;;;;;;;18.48;10.00;;;1.40;34.90;;;;;;5026112;28;46493;-63
2022/03/13 07:04:36;;;;;;;17.20;9.48;;;1.60;34.80;;;;;;5034579;28;46412;-62
2022/03/13 07:07:01;;;;;;;18.10;10.13;;;1.80;34.90;;;;;;5032173;28;46599;-62
2022/03/13 07:09:27;;;;;;;18.27;9.93;;;1.90;34.70;;;;;;5027610;28;46445;-64
2022/03/13 07:11:52;;;;;;;16.60;9.63;;;2.10;34.80;;;;;;5025013;28;46612;-65
2022/03/13 07:14:21;;;;;;;18.20;9.57;;;2.30;34.40;;;;;;5030228;28;46477;-64
2022/03/13 07:16:47;;;;;;;23.33;12.25;;;2.50;34.30;;;;;;5036378;28;46487;-62
2022/03/13 07:19:13;;;;;;;20.25;9.82;;;2.60;34.40;;;;;;5034766;28;47833;-61
2022/03/13 07:21:39;;;;;;;19.33;11.20;;;2.80;34.20;;;;;;5030688;28;46366;-62
2022/03/13 07:24:05;;;;;;;16.83;8.70;;;3.00;33.80;;;;;;5030152;28;46598;-64
2022/03/13 07:26:31;;;;;;;17.58;10.00;;;3.20;33.50;;;;;;5031763;28;46577;-62
2022/03/13 07:28:56;;;;;;;18.13;9.37;;;3.30;33.60;;;;;;5034064;28;46437;-61
2022/03/13 07:31:23;;;;;;;17.17;9.43;;;3.40;33.80;;;;;;5028528;28;46450;-63
2022/03/13 07:33:48;;;;;;;13.75;8.20;;;3.50;33.80;;;;;;5031792;28;46357;-62
2022/03/13 07:36:14;;;;;;;12.43;7.30;;;3.70;33.60;;;;;;5031969;28;46398;-64
2022/03/13 07:38:40;;;;;;;22.30;10.13;;;3.70;33.40;;;;;;5030405;28;46452;-64
2022/03/13 07:41:05;;;;;;;18.63;9.73;;;3.80;33.50;;;;;;5027468;28;46397;-63
2022/03/13 07:43:33;;;;;;;18.27;9.97;;;4.00;33.40;;;;;;5030448;28;46382;-62
2022/03/13 07:45:58;;;;;;;19.10;10.60;;;4.20;33.20;;;;;;5029778;28;46262;-64
2022/03/13 07:48:24;;;;;;;20.30;11.07;;;4.40;33.00;;;;;;5030530;28;46718;-63
2022/03/13 07:50:50;;;;;;;19.40;10.40;;;4.50;32.90;;;;;;5031001;28;46248;-64
2022/03/13 07:53:15;;;;;;;19.37;10.30;;;4.60;32.70;;;;;;5029946;28;46318;-64
2022/03/13 07:55:42;;;;;;;22.00;9.80;;;4.80;32.70;;;;;;5027622;28;46463;-62
2022/03/13 07:58:07;;;;;;;18.53;9.73;;;4.90;32.70;;;;;;5029536;28;46724;-64
2022/03/13 08:00:33;;;;;;;17.90;9.87;;;5.00;32.70;;;;;;5034669;28;46340;-64
2022/03/13 08:02:59;;;;;;;25.83;10.50;;;5.10;32.70;;;;;;5032127;28;46477;-64
2022/03/13 08:05:25;;;;;;;21.60;10.90;;;5.20;32.70;;;;;;5028813;28;46362;-64
2022/03/13 08:07:55;;;;;;;18.10;10.13;;;5.40;32.40;;;;;;5031358;28;46742;-63
2022/03/13 08:10:23;;;;;;;16.53;10.00;;;5.50;32.20;;;;;;5032441;28;46449;-63
2022/03/13 08:12:49;;;;;;;18.57;10.90;;;5.70;32.10;;;;;;5030249;28;46757;-64
2022/03/13 08:15:15;;;;;;;19.50;11.10;;;5.80;32.00;;;;;;5029335;28;46438;-63
2022/03/13 08:17:41;;;;;;;20.40;10.43;;;6.00;32.00;;;;;;5029530;28;47319;-64
2022/03/13 08:20:07;;;;;;;19.30;10.70;;;6.10;31.70;;;;;;5026375;28;46317;-63
2022/03/13 08:22:33;;;;;;;16.87;9.93;;;6.30;31.60;;;;;;5028368;28;46552;-64
2022/03/13 08:24:59;;;;;;;18.57;10.73;;;6.40;31.20;;;;;;5032873;28;46580;-64
2022/03/13 08:27:25;;;;;;;18.10;10.53;;;6.50;31.30;;;;;;5029844;28;46662;-64
2022/03/13 08:29:51;;;;;;;28.20;10.80;;;6.60;31.00;;;;;;5033342;28;46459;-64
2022/03/13 08:32:17;;;;;;;21.03;11.13;;;6.70;30.90;;;;;;5028939;28;46027;-62
2022/03/13 08:34:44;;;;;;;18.23;9.57;;;6.80;30.50;;;;;;5031937;28;46713;-62
2022/03/13 08:37:10;;;;;;;24.13;11.70;;;7.00;30.50;;;;;;5027531;28;46397;-64
2022/03/13 08:39:36;;;;;;;20.17;11.00;;;7.10;30.20;;;;;;5029268;28;46400;-65
2022/03/13 08:42:03;;;;;;;21.00;9.80;;;7.30;30.00;;;;;;5025492;28;46425;-62
2022/03/13 08:44:29;;;;;;;20.80;11.47;;;7.40;29.90;;;;;;5028543;28;46744;-64
2022/03/13 08:46:55;;;;;;;20.43;10.47;;;7.60;29.70;;;;;;5026826;28;46474;-63
2022/03/13 08:49:20;;;;;;;20.53;10.80;;;7.70;29.30;;;;;;5033749;28;46288;-67
2022/03/13 08:51:46;;;;;;;19.90;11.70;;;7.80;29.00;;;;;;5026138;28;45866;-66
2022/03/13 08:54:16;;;;;;;20.30;11.75;;;8.00;29.10;;;;;;5025138;28;46103;-62
2022/03/13 08:56:46;;;;;;;19.87;11.23;;;8.10;28.00;;;;;;5027997;28;47185;-63
2022/03/13 08:59:11;;;;;;;20.93;11.40;;;8.30;28.30;;;;;;5030694;28;46760;-63
2022/03/13 09:01:37;;;;;;;24.03;11.70;;;8.40;28.30;;;;;;5030256;28;46717;-63
2022/03/13 09:04:03;;;;;;;25.23;10.17;;;8.50;28.20;;;;;;5025047;28;46610;-62
2022/03/13 09:06:29;;;;;;;21.57;10.77;;;8.70;27.90;;;;;;5034157;28;47553;-64
2022/03/13 09:08:54;;;;;;;21.37;9.83;;;8.80;27.70;;;;;;5034372;28;46333;-62
2022/03/13 09:11:20;;;;;;;18.10;10.43;;;9.00;27.40;;;;;;5032387;28;46928;-63
2022/03/13 09:13:46;;;;;;;18.93;9.97;;;9.10;27.00;;;;;;5029476;28;46622;-63
2022/03/13 09:16:12;;;;;;;19.83;9.70;;;9.20;26.60;;;;;;5030413;28;46451;-63
2022/03/13 09:18:39;;;;;;;19.07;10.33;;;9.40;26.50;;;;;;5030490;28;46469;-64
2022/03/13 09:21:05;;;;;;;17.27;10.13;;;9.60;26.60;;;;;;5028235;28;46458;-64
2022/03/13 09:23:32;;;;;;;16.97;10.33;;;9.70;26.60;;;;;;5027973;28;46756;-65
2022/03/13 09:25:58;;;;;;;15.50;9.20;;;9.90;26.10;;;;;;5023064;28;46417;-66
2022/03/13 09:28:24;;;;;;;20.10;9.53;;;10.00;25.00;;;;;;5023539;28;46385;-65
2022/03/13 09:30:50;;;;;;;20.73;9.93;;;10.00;24.60;;;;;;5022911;28;46319;-65
2022/03/13 09:33:16;;;;;;;18.20;9.73;;;10.10;24.30;;;;;;5019833;28;46631;-64
2022/03/13 09:35:42;;;;;;;17.60;10.10;;;10.30;24.20;;;;;;5033458;28;46317;-64
2022/03/13 09:38:08;;;;;;;18.27;8.30;;;10.40;24.10;;;;;;5027676;28;46347;-64
2022/03/13 09:40:34;;;;;;;16.07;8.20;;;10.50;23.90;;;;;;5027521;28;46939;-64
2022/03/13 09:43:06;;;;;;;18.87;8.97;;;10.60;23.70;;;;;;5030723;28;45876;-63
2022/03/13 09:45:32;;;;;;;17.10;9.18;;;10.70;23.30;;;;;;5026464;28;48067;-64
2022/03/13 09:47:58;;;;;;;23.10;8.77;;;10.60;23.00;;;;;;5025636;28;46363;-64
2022/03/13 09:50:24;;;;;;;17.00;9.90;;;10.70;23.10;;;;;;5025772;28;46652;-64
2022/03/13 09:52:50;;;;;;;18.57;9.80;;;10.60;21.20;;;;;;5027685;28;46457;-65
2022/03/13 09:55:16;;;;;;;17.07;9.60;;;10.80;22.00;;;;;;5027074;28;47313;-63
2022/03/13 09:57:43;;;;;;;17.47;8.93;;;10.90;22.00;;;;;;5025670;28;46806;-64
2022/03/13 10:00:14;;;;;;;18.77;9.40;;;11.10;22.00;;;;;;5038837;28;46399;-64
2022/03/13 10:02:40;;;;;;;19.80;9.20;;;11.10;21.60;;;;;;5028538;28;46696;-64
2022/03/13 10:05:14;;;;;;;16.30;8.70;;;11.20;21.80;;;;;;5033600;28;47213;-64
2022/03/13 10:08:00;;;;;;;22.83;9.37;;;11.30;21.20;;;;;;5032052;28;46725;-64
2022/03/13 10:10:31;;;;;;;15.63;9.10;;;11.40;21.20;;;;;;5030920;28;46625;-64
2022/03/13 10:12:59;;;;;;;14.97;8.80;;;11.50;21.20;;;;;;5033751;28;46851;-65
2022/03/13 10:15:25;;;;;;;16.63;9.30;;;11.60;21.10;;;;;;5029744;28;48007;-65
2022/03/13 10:17:51;;;;;;;17.92;9.98;;;11.60;20.90;;;;;;5029842;28;46433;-65
2022/03/13 10:20:27;;;;;;;16.90;9.88;;;11.60;19.00;;;;;;5030636;28;46418;-65
2022/03/13 10:22:58;;;;;;;17.88;9.70;;;11.60;17.90;;;;;;5031990;28;45990;-65
2022/03/13 10:25:33;;;;;;;17.63;10.10;;;11.70;18.20;;;;;;5032541;28;46688;-65
2022/03/13 10:28:11;;;;;;;20.23;9.13;;;11.80;18.70;;;;;;5029673;28;46524;-65
2022/03/13 10:30:37;;;;;;;17.07;8.77;;;11.90;18.80;;;;;;5031026;28;46403;-64
2022/03/13 10:33:02;;;;;;;15.77;9.50;;;11.90;18.30;;;;;;5029838;28;46670;-65
2022/03/13 10:35:28;;;;;;;21.07;9.30;;;11.80;18.80;;;;;;5028529;28;46130;-65
2022/03/13 10:37:55;;;;;;;19.23;9.17;;;11.90;18.50;;;;;;5032133;28;46337;-66
2022/03/13 10:40:22;;;;;;;17.33;9.20;;;12.00;18.90;;;;;;5030582;28;46522;-65
2022/03/13 10:42:50;;;;;;;16.47;8.47;;;12.10;19.00;;;;;;5029169;28;45881;-65
2022/03/13 10:45:37;;;;;;;16.87;8.63;;;12.20;18.80;;;;;;5032288;28;46721;-65
2022/03/13 10:48:21;;;;;;;17.13;10.00;;;12.30;18.50;;;;;;5037500;28;46386;-65
2022/03/13 10:50:50;;;;;;;14.23;8.80;;;12.40;18.30;;;;;;5035313;28;46798;-64
2022/03/13 10:53:17;;;;;;;18.23;8.80;;;12.40;18.40;;;;;;5032889;28;46601;-66
2022/03/13 10:55:44;;;;;;;17.13;8.63;;;12.50;18.20;;;;;;5031230;28;47256;-63
2022/03/13 10:58:10;;;;;;;19.10;9.27;;;12.60;18.00;;;;;;5030900;28;46594;-65
2022/03/13 11:00:36;;;;;;;16.37;9.00;;;12.70;17.90;;;;;;5033808;28;46416;-65
2022/03/13 11:03:13;;;;;;;20.67;8.97;;;12.90;19.00;;;;;;5030976;28;46409;-65
2022/03/13 11:05:39;;;;;;;14.07;8.50;;;13.00;17.50;;;;;;5024638;28;46728;-65
2022/03/13 11:08:07;;;;;;;16.27;8.60;;;13.20;17.70;;;;;;5029243;28;46417;-65
2022/03/13 11:10:36;;;;;;;16.30;9.47;;;13.20;17.60;;;;;;5032824;28;46309;-65
2022/03/13 11:13:04;;;;;;;16.30;8.70;;;13.10;17.60;;;;;;5030792;28;46395;-65
2022/03/13 11:15:31;;;;;;;13.13;8.00;;;13.10;17.10;;;;;;5029575;28;46862;-64
2022/03/13 11:17:58;;;;;;;16.40;8.50;;;13.10;17.50;;;;;;5031208;28;46394;-65
2022/03/13 11:20:25;;;;;;;14.10;8.90;;;13.30;17.60;;;;;;5031025;28;46154;-65
2022/03/13 11:22:50;;;;;;;15.50;7.87;;;13.40;16.80;;;;;;5030011;28;46707;-65
2022/03/13 11:25:21;;;;;;;14.77;8.90;;;13.40;16.80;;;;;;5025977;28;46453;-65
2022/03/13 11:27:47;;;;;;;14.03;8.17;;;13.50;16.70;;;;;;5033527;28;46704;-65
2022/03/13 11:30:15;;;;;;;15.93;8.23;;;13.50;16.60;;;;;;5027216;28;46375;-65
2022/03/13 11:32:50;;;;;;;19.07;10.07;;;13.60;16.70;;;;;;5032079;28;46370;-65
2022/03/13 11:35:16;;;;;;;17.90;8.73;;;13.70;16.40;;;;;;5034109;28;46934;-65
2022/03/13 11:37:44;;;;;;;15.70;8.17;;;13.50;16.00;;;;;;5028370;28;46550;-65
2022/03/13 11:40:13;;;;;;;17.27;8.47;;;13.40;15.80;;;;;;5028732;28;46352;-65
2022/03/13 11:42:54;;;;;;;15.73;8.83;;;13.50;16.10;;;;;;5032033;28;46727;-65
2022/03/13 11:45:35;;;;;;;15.93;8.60;;;13.50;15.70;;;;;;5028699;28;46607;-65
2022/03/13 11:48:22;;;;;;;17.40;9.50;;;13.60;15.80;;;;;;5027970;28;46457;-65
2022/03/13 11:50:52;;;;;;;18.80;9.23;;;13.60;15.60;;;;;;5026088;28;46417;-65
2022/03/13 11:53:28;;;;;;;16.40;9.20;;;13.70;16.10;;;;;;5027995;28;46264;-64
2022/03/13 11:55:57;;;;;;;13.70;8.20;;;13.70;15.70;;;;;;5030113;28;46457;-65
2022/03/13 11:58:46;;;;;;;17.70;9.67;;;13.60;15.50;;;;;;5034587;28;46512;-65
2022/03/13 12:01:17;;;;;;;17.67;8.77;;;13.60;15.20;;;;;;5036105;28;46376;-65
2022/03/13 12:04:04;;;;;;;16.90;9.60;;;13.70;15.70;;;;;;5034800;28;46724;-65
2022/03/13 12:06:42;;;;;;;16.60;8.67;;;13.70;15.10;;;;;;5030670;28;46963;-66
2022/03/13 12:09:14;;;;;;;13.93;8.53;;;13.80;15.00;;;;;;5029670;28;46382;-65
2022/03/13 12:11:50;;;;;;;15.57;9.17;;;13.80;14.80;;;;;;5030027;28;46437;-65
2022/03/13 12:14:18;;;;;;;16.07;9.20;;;13.70;14.80;;;;;;5028429;28;45860;-65
2022/03/13 12:16:45;;;;;;;16.50;8.80;;;13.80;15.10;;;;;;5029460;28;46389;-65
2022/03/13 12:19:12;;;;;;;15.40;9.00;;;13.90;14.70;;;;;;5023412;28;46394;-64
2022/03/13 12:21:44;;;;;;;20.03;9.80;;;13.80;14.30;;;;;;5030754;28;46327;-65
2022/03/13 12:24:14;;;;;;;15.00;8.57;;;13.80;14.10;;;;;;5028523;28;46471;-65
2022/03/13 12:26:40;;;;;;;13.80;8.03;;;13.80;14.40;;;;;;5031826;28;46552;-64
2022/03/13 12:29:10;;;;;;;15.80;8.93;;;13.80;14.40;;;;;;5034383;28;46671;-65
2022/03/13 12:31:45;;;;;;;14.33;8.47;;;13.90;14.50;;;;;;5029480;28;46374;-65
2022/03/13 12:34:10;;;;;;;15.10;7.97;;;14.00;14.10;;;;;;5027064;28;46510;-65
2022/03/13 12:36:40;;;;;;;14.07;8.27;;;13.90;13.30;;;;;;5033076;28;47300;-65
2022/03/13 12:39:14;;;;;;;13.67;8.03;;;14.00;13.70;;;;;;5031425;28;46371;-65
2022/03/13 12:41:46;;;;;;;16.10;8.70;;;14.00;13.40;;;;;;5024777;28;46401;-65